sensor_id;sensor_type;location;lat;lon;timestamp;pressure;altitude;pressure_sealevel;temperature
10598;BMP180;5346;48.766;8.674;2023-05-10T00:02:08;93515.00;;;10.10
10598;BMP180;5346;48.766;8.674;2023-05-10T00:04:35;93509.00;;;10.10
10598;BMP180;5346;48.766;8.674;2023-05-10T00:07:09;93519.00;;;10.10
10598;BMP180;5346;48.766;8.674;2023-05-10T00:09:43;93508.00;;;10.10
10598;BMP180;5346;48.766;8.674;2023-05-10T00:12:17;93483.00;;;9.90
10598;BMP180;5346;48.766;8.674;2023-05-10T00:14:51;93503.00;;;9.90
10598;BMP180;5346;48.766;8.674;2023-05-10T00:17:25;93509.00;;;10.10
10598;BMP180;5346;48.766;8.674;2023-05-10T00:20:06;93509.00;;;10.00
10598;BMP180;5346;48.766;8.674;2023-05-10T00:22:40;93509.00;;;10.10
10598;BMP180;5346;48.766;8.674;2023-05-10T00:25:08;93499.00;;;10.00
10598;BMP180;5346;48.766;8.674;2023-05-10T00:27:42;93491.00;;;10.00
10598;BMP180;5346;48.766;8.674;2023-05-10T00:30:09;93503.00;;;10.10
10598;BMP180;5346;48.766;8.674;2023-05-10T00:32:44;93461.00;;;10.10
10598;BMP180;5346;48.766;8.674;2023-05-10T00:35:17;93493.00;;;10.10
10598;BMP180;5346;48.766;8.674;2023-05-10T00:37:51;93492.00;;;10.10
10598;BMP180;5346;48.766;8.674;2023-05-10T00:40:18;93491.00;;;10.00
10598;BMP180;5346;48.766;8.674;2023-05-10T00:42:52;93484.00;;;10.10
10598;BMP180;5346;48.766;8.674;2023-05-10T00:45:27;93518.00;;;10.00
10598;BMP180;5346;48.766;8.674;2023-05-10T00:47:55;93524.00;;;9.90
10598;BMP180;5346;48.766;8.674;2023-05-10T00:50:31;93514.00;;;9.80
10598;BMP180;5346;48.766;8.674;2023-05-10T00:53:04;93523.00;;;9.90
10598;BMP180;5346;48.766;8.674;2023-05-10T00:55:31;93523.00;;;10.00
10598;BMP180;5346;48.766;8.674;2023-05-10T00:58:05;93508.00;;;10.00
10598;BMP180;5346;48.766;8.674;2023-05-10T01:00:33;93519.00;;;10.00
10598;BMP180;5346;48.766;8.674;2023-05-10T01:03:07;93503.00;;;9.90
10598;BMP180;5346;48.766;8.674;2023-05-10T01:05:34;93527.00;;;9.90
10598;BMP180;5346;48.766;8.674;2023-05-10T01:08:08;93526.00;;;10.00
10598;BMP180;5346;48.766;8.674;2023-05-10T01:10:35;93536.00;;;10.00
10598;BMP180;5346;48.766;8.674;2023-05-10T01:13:10;93527.00;;;10.00
10598;BMP180;5346;48.766;8.674;2023-05-10T01:15:46;93518.00;;;10.00
10598;BMP180;5346;48.766;8.674;2023-05-10T01:18:21;93522.00;;;10.00
10598;BMP180;5346;48.766;8.674;2023-05-10T01:21:22;93534.00;;;10.00
10598;BMP180;5346;48.766;8.674;2023-05-10T01:27:02;93534.00;;;9.90
10598;BMP180;5346;48.766;8.674;2023-05-10T01:33:18;93515.00;;;9.90
10598;BMP180;5346;48.766;8.674;2023-05-10T01:39:11;93514.00;;;9.80
10598;BMP180;5346;48.766;8.674;2023-05-10T01:42:17;93478.00;;;9.70
10598;BMP180;5346;48.766;8.674;2023-05-10T01:47:43;93521.00;;;9.80
10598;BMP180;5346;48.766;8.674;2023-05-10T01:50:18;93543.00;;;9.90
10598;BMP180;5346;48.766;8.674;2023-05-10T01:52:57;93544.00;;;10.00
10598;BMP180;5346;48.766;8.674;2023-05-10T01:55:35;93542.00;;;10.00
10598;BMP180;5346;48.766;8.674;2023-05-10T01:58:18;93513.00;;;9.90
10598;BMP180;5346;48.766;8.674;2023-05-10T02:00:49;93540.00;;;9.80
10598;BMP180;5346;48.766;8.674;2023-05-10T02:03:24;93551.00;;;10.00
10598;BMP180;5346;48.766;8.674;2023-05-10T02:06:00;93538.00;;;9.90
10598;BMP180;5346;48.766;8.674;2023-05-10T02:08:36;93546.00;;;9.90
10598;BMP180;5346;48.766;8.674;2023-05-10T02:11:04;93548.00;;;10.10
10598;BMP180;5346;48.766;8.674;2023-05-10T02:13:41;93531.00;;;10.00
10598;BMP180;5346;48.766;8.674;2023-05-10T02:16:18;93552.00;;;9.90
10598;BMP180;5346;48.766;8.674;2023-05-10T02:19:02;93536.00;;;10.10
10598;BMP180;5346;48.766;8.674;2023-05-10T02:21:39;93533.00;;;10.10
10598;BMP180;5346;48.766;8.674;2023-05-10T02:24:15;93558.00;;;10.00
10598;BMP180;5346;48.766;8.674;2023-05-10T02:26:44;93559.00;;;9.90
10598;BMP180;5346;48.766;8.674;2023-05-10T02:29:19;93568.00;;;10.10
10598;BMP180;5346;48.766;8.674;2023-05-10T02:31:55;93556.00;;;10.20
10598;BMP180;5346;48.766;8.674;2023-05-10T02:34:31;93547.00;;;10.20
10598;BMP180;5346;48.766;8.674;2023-05-10T02:37:00;93567.00;;;10.00
10598;BMP180;5346;48.766;8.674;2023-05-10T02:39:36;93567.00;;;10.10
10598;BMP180;5346;48.766;8.674;2023-05-10T02:42:04;93564.00;;;10.00
10598;BMP180;5346;48.766;8.674;2023-05-10T02:44:40;93570.00;;;10.10
10598;BMP180;5346;48.766;8.674;2023-05-10T02:47:08;93575.00;;;10.20
10598;BMP180;5346;48.766;8.674;2023-05-10T02:49:43;93562.00;;;10.20
10598;BMP180;5346;48.766;8.674;2023-05-10T02:52:10;93573.00;;;10.10
10598;BMP180;5346;48.766;8.674;2023-05-10T02:54:54;93569.00;;;10.20
10598;BMP180;5346;48.766;8.674;2023-05-10T02:57:34;93573.00;;;10.00
10598;BMP180;5346;48.766;8.674;2023-05-10T03:00:15;93547.00;;;10.20
10598;BMP180;5346;48.766;8.674;2023-05-10T03:02:48;93572.00;;;10.10
10598;BMP180;5346;48.766;8.674;2023-05-10T03:05:21;93574.00;;;10.20
10598;BMP180;5346;48.766;8.674;2023-05-10T03:07:49;93574.00;;;10.20
10598;BMP180;5346;48.766;8.674;2023-05-10T03:10:30;93578.00;;;10.10
10598;BMP180;5346;48.766;8.674;2023-05-10T03:13:36;93582.00;;;10.10
10598;BMP180;5346;48.766;8.674;2023-05-10T03:16:16;93587.00;;;10.10
10598;BMP180;5346;48.766;8.674;2023-05-10T03:19:06;93592.00;;;10.00
10598;BMP180;5346;48.766;8.674;2023-05-10T03:21:55;93588.00;;;10.00
10598;BMP180;5346;48.766;8.674;2023-05-10T03:24:27;93585.00;;;10.10
10598;BMP180;5346;48.766;8.674;2023-05-10T03:27:03;93594.00;;;10.10
10598;BMP180;5346;48.766;8.674;2023-05-10T03:29:32;93603.00;;;10.00
10598;BMP180;5346;48.766;8.674;2023-05-10T03:32:06;93589.00;;;10.20
10598;BMP180;5346;48.766;8.674;2023-05-10T03:34:43;93579.00;;;10.00
10598;BMP180;5346;48.766;8.674;2023-05-10T03:37:10;93588.00;;;9.90
10598;BMP180;5346;48.766;8.674;2023-05-10T03:39:44;93581.00;;;10.00
10598;BMP180;5346;48.766;8.674;2023-05-10T03:42:11;93555.00;;;10.00
10598;BMP180;5346;48.766;8.674;2023-05-10T03:44:45;93582.00;;;9.90
10598;BMP180;5346;48.766;8.674;2023-05-10T03:47:12;93586.00;;;10.10
10598;BMP180;5346;48.766;8.674;2023-05-10T03:49:46;93584.00;;;9.90
10598;BMP180;5346;48.766;8.674;2023-05-10T03:52:13;93602.00;;;10.00
10598;BMP180;5346;48.766;8.674;2023-05-10T03:54:47;93595.00;;;9.90
10598;BMP180;5346;48.766;8.674;2023-05-10T03:57:20;93595.00;;;10.00
10598;BMP180;5346;48.766;8.674;2023-05-10T03:59:54;93589.00;;;10.00
10598;BMP180;5346;48.766;8.674;2023-05-10T04:02:21;93607.00;;;9.80
10598;BMP180;5346;48.766;8.674;2023-05-10T04:04:56;93592.00;;;9.80
10598;BMP180;5346;48.766;8.674;2023-05-10T04:07:29;93592.00;;;9.90
10598;BMP180;5346;48.766;8.674;2023-05-10T04:10:04;93603.00;;;10.00
10598;BMP180;5346;48.766;8.674;2023-05-10T04:12:32;93597.00;;;9.80
10598;BMP180;5346;48.766;8.674;2023-05-10T04:15:13;93610.00;;;9.90
10598;BMP180;5346;48.766;8.674;2023-05-10T04:17:54;93607.00;;;10.00
10598;BMP180;5346;48.766;8.674;2023-05-10T04:20:27;93604.00;;;10.00
10598;BMP180;5346;48.766;8.674;2023-05-10T04:23:08;93593.00;;;10.00
10598;BMP180;5346;48.766;8.674;2023-05-10T04:25:35;93611.00;;;10.10
10598;BMP180;5346;48.766;8.674;2023-05-10T04:28:09;93595.00;;;10.00
10598;BMP180;5346;48.766;8.674;2023-05-10T04:30:37;93596.00;;;10.00
10598;BMP180;5346;48.766;8.674;2023-05-10T04:33:10;93610.00;;;10.10
10598;BMP180;5346;48.766;8.674;2023-05-10T04:35:44;93617.00;;;10.10
10598;BMP180;5346;48.766;8.674;2023-05-10T04:38:18;93597.00;;;10.10
10598;BMP180;5346;48.766;8.674;2023-05-10T04:40:45;93617.00;;;10.10
10598;BMP180;5346;48.766;8.674;2023-05-10T04:43:13;93624.00;;;10.10
10598;BMP180;5346;48.766;8.674;2023-05-10T04:45:46;93602.00;;;10.10
10598;BMP180;5346;48.766;8.674;2023-05-10T04:48:20;93626.00;;;10.10
10598;BMP180;5346;48.766;8.674;2023-05-10T04:50:48;93600.00;;;10.10
10598;BMP180;5346;48.766;8.674;2023-05-10T04:53:22;93629.00;;;10.10
10598;BMP180;5346;48.766;8.674;2023-05-10T04:55:49;93610.00;;;10.20
10598;BMP180;5346;48.766;8.674;2023-05-10T04:58:22;93605.00;;;10.10
10598;BMP180;5346;48.766;8.674;2023-05-10T05:00:56;93606.00;;;10.00
10598;BMP180;5346;48.766;8.674;2023-05-10T05:03:30;93617.00;;;10.10
10598;BMP180;5346;48.766;8.674;2023-05-10T05:06:05;93604.00;;;10.20
10598;BMP180;5346;48.766;8.674;2023-05-10T05:08:38;93626.00;;;10.30
10598;BMP180;5346;48.766;8.674;2023-05-10T05:11:05;93631.00;;;10.30
10598;BMP180;5346;48.766;8.674;2023-05-10T05:13:39;93625.00;;;10.40
10598;BMP180;5346;48.766;8.674;2023-05-10T05:16:06;93630.00;;;10.40
10598;BMP180;5346;48.766;8.674;2023-05-10T05:18:47;93638.00;;;10.40
10598;BMP180;5346;48.766;8.674;2023-05-10T05:21:27;93628.00;;;10.30
10598;BMP180;5346;48.766;8.674;2023-05-10T05:24:03;93638.00;;;10.20
10598;BMP180;5346;48.766;8.674;2023-05-10T05:26:31;93635.00;;;10.20
10598;BMP180;5346;48.766;8.674;2023-05-10T05:29:04;93622.00;;;10.30
10598;BMP180;5346;48.766;8.674;2023-05-10T05:31:38;93639.00;;;10.00
10598;BMP180;5346;48.766;8.674;2023-05-10T05:34:12;93625.00;;;10.00
10598;BMP180;5346;48.766;8.674;2023-05-10T05:36:39;93642.00;;;9.80
10598;BMP180;5346;48.766;8.674;2023-05-10T05:39:14;93653.00;;;9.80
10598;BMP180;5346;48.766;8.674;2023-05-10T05:41:41;93657.00;;;9.80
10598;BMP180;5346;48.766;8.674;2023-05-10T05:44:14;93651.00;;;10.10
10598;BMP180;5346;48.766;8.674;2023-05-10T05:46:48;93649.00;;;9.80
10598;BMP180;5346;48.766;8.674;2023-05-10T05:49:22;93648.00;;;9.70
10598;BMP180;5346;48.766;8.674;2023-05-10T05:52:02;93654.00;;;9.90
10598;BMP180;5346;48.766;8.674;2023-05-10T05:54:36;93646.00;;;9.70
10598;BMP180;5346;48.766;8.674;2023-05-10T05:57:03;93642.00;;;9.80
10598;BMP180;5346;48.766;8.674;2023-05-10T05:59:30;93643.00;;;9.80
10598;BMP180;5346;48.766;8.674;2023-05-10T06:02:04;93663.00;;;9.90
10598;BMP180;5346;48.766;8.674;2023-05-10T06:04:38;93648.00;;;9.80
10598;BMP180;5346;48.766;8.674;2023-05-10T06:07:10;93655.00;;;10.10
10598;BMP180;5346;48.766;8.674;2023-05-10T06:09:43;93655.00;;;10.30
10598;BMP180;5346;48.766;8.674;2023-05-10T06:12:17;93641.00;;;10.50
10598;BMP180;5346;48.766;8.674;2023-05-10T06:14:52;93638.00;;;10.50
10598;BMP180;5346;48.766;8.674;2023-05-10T06:17:26;93637.00;;;10.70
10598;BMP180;5346;48.766;8.674;2023-05-10T06:19:59;93650.00;;;10.70
10598;BMP180;5346;48.766;8.674;2023-05-10T06:22:33;93617.00;;;10.90
10598;BMP180;5346;48.766;8.674;2023-05-10T06:25:08;93663.00;;;10.70
10598;BMP180;5346;48.766;8.674;2023-05-10T06:27:43;93665.00;;;10.90
10598;BMP180;5346;48.766;8.674;2023-05-10T06:30:15;93665.00;;;11.10
10598;BMP180;5346;48.766;8.674;2023-05-10T06:32:48;93669.00;;;11.30
10598;BMP180;5346;48.766;8.674;2023-05-10T06:35:15;93651.00;;;11.80
10598;BMP180;5346;48.766;8.674;2023-05-10T06:37:50;93650.00;;;11.50
10598;BMP180;5346;48.766;8.674;2023-05-10T06:40:18;93675.00;;;11.50
10598;BMP180;5346;48.766;8.674;2023-05-10T06:42:51;93674.00;;;11.20
10598;BMP180;5346;48.766;8.674;2023-05-10T06:45:19;93648.00;;;11.30
10598;BMP180;5346;48.766;8.674;2023-05-10T06:47:46;93668.00;;;11.60
10598;BMP180;5346;48.766;8.674;2023-05-10T06:50:19;93651.00;;;11.80
10598;BMP180;5346;48.766;8.674;2023-05-10T06:52:53;93658.00;;;12.00
10598;BMP180;5346;48.766;8.674;2023-05-10T06:55:21;93676.00;;;12.00
10598;BMP180;5346;48.766;8.674;2023-05-10T06:57:54;93669.00;;;12.10
10598;BMP180;5346;48.766;8.674;2023-05-10T07:00:28;93677.00;;;11.90
10598;BMP180;5346;48.766;8.674;2023-05-10T07:03:02;93671.00;;;11.70
10598;BMP180;5346;48.766;8.674;2023-05-10T07:05:36;93668.00;;;11.70
10598;BMP180;5346;48.766;8.674;2023-05-10T07:08:04;93635.00;;;11.70
10598;BMP180;5346;48.766;8.674;2023-05-10T07:10:31;93672.00;;;11.90
10598;BMP180;5346;48.766;8.674;2023-05-10T07:13:04;93667.00;;;12.00
10598;BMP180;5346;48.766;8.674;2023-05-10T07:15:33;93663.00;;;12.20
10598;BMP180;5346;48.766;8.674;2023-05-10T07:18:14;93667.00;;;12.10
10598;BMP180;5346;48.766;8.674;2023-05-10T07:20:54;93645.00;;;12.20
10598;BMP180;5346;48.766;8.674;2023-05-10T07:23:29;93671.00;;;11.80
10598;BMP180;5346;48.766;8.674;2023-05-10T07:25:56;93667.00;;;12.00
10598;BMP180;5346;48.766;8.674;2023-05-10T07:28:30;93674.00;;;11.80
10598;BMP180;5346;48.766;8.674;2023-05-10T07:30:57;93657.00;;;12.00
10598;BMP180;5346;48.766;8.674;2023-05-10T07:33:33;93650.00;;;12.50
10598;BMP180;5346;48.766;8.674;2023-05-10T07:36:07;93680.00;;;12.70
10598;BMP180;5346;48.766;8.674;2023-05-10T07:38:40;93667.00;;;12.40
10598;BMP180;5346;48.766;8.674;2023-05-10T07:41:07;93675.00;;;12.10
10598;BMP180;5346;48.766;8.674;2023-05-10T07:43:42;93649.00;;;12.50
10598;BMP180;5346;48.766;8.674;2023-05-10T07:46:09;93675.00;;;12.30
10598;BMP180;5346;48.766;8.674;2023-05-10T07:48:46;93647.00;;;12.40
10598;BMP180;5346;48.766;8.674;2023-05-10T07:51:19;93677.00;;;12.40
10598;BMP180;5346;48.766;8.674;2023-05-10T07:53:46;93626.00;;;12.20
10598;BMP180;5346;48.766;8.674;2023-05-10T07:56:31;93684.00;;;12.50
10598;BMP180;5346;48.766;8.674;2023-05-10T07:59:07;93678.00;;;12.60
10598;BMP180;5346;48.766;8.674;2023-05-10T08:01:37;93675.00;;;12.10
10598;BMP180;5346;48.766;8.674;2023-05-10T08:04:12;93629.00;;;13.00
10598;BMP180;5346;48.766;8.674;2023-05-10T08:06:40;93683.00;;;12.60
10598;BMP180;5346;48.766;8.674;2023-05-10T08:09:16;93680.00;;;13.10
10598;BMP180;5346;48.766;8.674;2023-05-10T08:11:43;93642.00;;;13.40
10598;BMP180;5346;48.766;8.674;2023-05-10T08:14:17;93688.00;;;13.40
10598;BMP180;5346;48.766;8.674;2023-05-10T08:16:46;93687.00;;;13.50
10598;BMP180;5346;48.766;8.674;2023-05-10T08:19:20;93689.00;;;13.40
10598;BMP180;5346;48.766;8.674;2023-05-10T08:21:54;93681.00;;;12.50
10598;BMP180;5346;48.766;8.674;2023-05-10T08:24:31;93699.00;;;13.00
10598;BMP180;5346;48.766;8.674;2023-05-10T08:27:06;93682.00;;;12.60
10598;BMP180;5346;48.766;8.674;2023-05-10T08:29:33;93685.00;;;13.10
10598;BMP180;5346;48.766;8.674;2023-05-10T08:32:16;93709.00;;;13.60
10598;BMP180;5346;48.766;8.674;2023-05-10T08:34:49;93679.00;;;13.50
10598;BMP180;5346;48.766;8.674;2023-05-10T08:37:25;93702.00;;;13.70
10598;BMP180;5346;48.766;8.674;2023-05-10T08:39:52;93698.00;;;14.30
10598;BMP180;5346;48.766;8.674;2023-05-10T08:42:30;93649.00;;;14.20
10598;BMP180;5346;48.766;8.674;2023-05-10T08:45:09;93689.00;;;15.00
10598;BMP180;5346;48.766;8.674;2023-05-10T08:47:38;93688.00;;;14.90
10598;BMP180;5346;48.766;8.674;2023-05-10T08:50:16;93666.00;;;15.20
10598;BMP180;5346;48.766;8.674;2023-05-10T08:52:57;93683.00;;;14.80
10598;BMP180;5346;48.766;8.674;2023-05-10T08:55:34;93683.00;;;14.30
10598;BMP180;5346;48.766;8.674;2023-05-10T08:58:13;93667.00;;;15.20
10598;BMP180;5346;48.766;8.674;2023-05-10T09:00:49;93685.00;;;15.60
10598;BMP180;5346;48.766;8.674;2023-05-10T09:03:25;93690.00;;;15.60
10598;BMP180;5346;48.766;8.674;2023-05-10T09:05:59;93701.00;;;16.10
10598;BMP180;5346;48.766;8.674;2023-05-10T09:08:34;93715.00;;;15.40
10598;BMP180;5346;48.766;8.674;2023-05-10T09:11:11;93732.00;;;13.90
10598;BMP180;5346;48.766;8.674;2023-05-10T09:13:48;93715.00;;;14.00
10598;BMP180;5346;48.766;8.674;2023-05-10T09:16:22;93733.00;;;13.70
10598;BMP180;5346;48.766;8.674;2023-05-10T09:18:56;93732.00;;;14.20
10598;BMP180;5346;48.766;8.674;2023-05-10T09:21:37;93711.00;;;13.90
10598;BMP180;5346;48.766;8.674;2023-05-10T09:24:12;93727.00;;;14.50
10598;BMP180;5346;48.766;8.674;2023-05-10T09:26:47;93720.00;;;14.90
10598;BMP180;5346;48.766;8.674;2023-05-10T09:29:24;93703.00;;;14.60
10598;BMP180;5346;48.766;8.674;2023-05-10T09:31:59;93722.00;;;14.70
10598;BMP180;5346;48.766;8.674;2023-05-10T09:34:33;93732.00;;;14.80
10598;BMP180;5346;48.766;8.674;2023-05-10T09:37:03;93722.00;;;14.90
10598;BMP180;5346;48.766;8.674;2023-05-10T09:39:40;93713.00;;;15.30
10598;BMP180;5346;48.766;8.674;2023-05-10T09:42:09;93717.00;;;15.10
10598;BMP180;5346;48.766;8.674;2023-05-10T09:44:45;93736.00;;;15.90
10598;BMP180;5346;48.766;8.674;2023-05-10T09:47:19;93743.00;;;15.60
10598;BMP180;5346;48.766;8.674;2023-05-10T09:49:53;93732.00;;;14.70
10598;BMP180;5346;48.766;8.674;2023-05-10T09:52:24;93773.00;;;13.30
10598;BMP180;5346;48.766;8.674;2023-05-10T09:54:58;93785.00;;;12.50
10598;BMP180;5346;48.766;8.674;2023-05-10T09:57:34;93798.00;;;11.30
10598;BMP180;5346;48.766;8.674;2023-05-10T10:00:08;93785.00;;;11.00
10598;BMP180;5346;48.766;8.674;2023-05-10T10:02:47;93808.00;;;10.40
10598;BMP180;5346;48.766;8.674;2023-05-10T10:05:34;93820.00;;;10.50
10598;BMP180;5346;48.766;8.674;2023-05-10T10:08:08;93808.00;;;10.50
10598;BMP180;5346;48.766;8.674;2023-05-10T10:10:42;93807.00;;;10.70
10598;BMP180;5346;48.766;8.674;2023-05-10T10:13:13;93805.00;;;10.90
10598;BMP180;5346;48.766;8.674;2023-05-10T10:15:47;93794.00;;;11.40
10598;BMP180;5346;48.766;8.674;2023-05-10T10:18:18;93797.00;;;11.50
10598;BMP180;5346;48.766;8.674;2023-05-10T10:20:57;93792.00;;;11.60
10598;BMP180;5346;48.766;8.674;2023-05-10T10:23:30;93773.00;;;12.00
10598;BMP180;5346;48.766;8.674;2023-05-10T10:26:07;93772.00;;;12.30
10598;BMP180;5346;48.766;8.674;2023-05-10T10:34:55;93757.00;;;12.20
10598;BMP180;5346;48.766;8.674;2023-05-10T10:37:47;93777.00;;;12.30
10598;BMP180;5346;48.766;8.674;2023-05-10T10:40:27;93769.00;;;12.30
10598;BMP180;5346;48.766;8.674;2023-05-10T10:43:25;93705.00;;;13.60
10598;BMP180;5346;48.766;8.674;2023-05-10T10:46:17;93745.00;;;13.60
10598;BMP180;5346;48.766;8.674;2023-05-10T10:49:09;93755.00;;;13.70
10598;BMP180;5346;48.766;8.674;2023-05-10T10:55:17;93767.00;;;13.50
10598;BMP180;5346;48.766;8.674;2023-05-10T10:57:57;93762.00;;;13.20
10598;BMP180;5346;48.766;8.674;2023-05-10T11:00:38;93770.00;;;12.60
10598;BMP180;5346;48.766;8.674;2023-05-10T11:03:15;93773.00;;;13.00
10598;BMP180;5346;48.766;8.674;2023-05-10T11:05:49;93765.00;;;13.20
10598;BMP180;5346;48.766;8.674;2023-05-10T11:08:32;93782.00;;;13.30
10598;BMP180;5346;48.766;8.674;2023-05-10T11:11:06;93782.00;;;13.80
10598;BMP180;5346;48.766;8.674;2023-05-10T11:13:46;93785.00;;;13.30
10598;BMP180;5346;48.766;8.674;2023-05-10T11:16:24;93790.00;;;13.70
10598;BMP180;5346;48.766;8.674;2023-05-10T11:19:10;93774.00;;;14.10
10598;BMP180;5346;48.766;8.674;2023-05-10T11:22:12;93782.00;;;12.80
10598;BMP180;5346;48.766;8.674;2023-05-10T11:24:57;93777.00;;;13.50
10598;BMP180;5346;48.766;8.674;2023-05-10T11:27:25;93768.00;;;13.40
10598;BMP180;5346;48.766;8.674;2023-05-10T11:29:58;93754.00;;;13.90
10598;BMP180;5346;48.766;8.674;2023-05-10T11:32:32;93759.00;;;14.90
10598;BMP180;5346;48.766;8.674;2023-05-10T11:35:08;93736.00;;;14.60
10598;BMP180;5346;48.766;8.674;2023-05-10T11:37:41;93770.00;;;14.20
10598;BMP180;5346;48.766;8.674;2023-05-10T11:40:17;93758.00;;;13.30
10598;BMP180;5346;48.766;8.674;2023-05-10T11:42:46;93770.00;;;13.90
10598;BMP180;5346;48.766;8.674;2023-05-10T11:45:19;93760.00;;;13.30
10598;BMP180;5346;48.766;8.674;2023-05-10T11:47:49;93771.00;;;13.40
10598;BMP180;5346;48.766;8.674;2023-05-10T11:50:24;93750.00;;;15.00
10598;BMP180;5346;48.766;8.674;2023-05-10T11:52:55;93760.00;;;14.30
10598;BMP180;5346;48.766;8.674;2023-05-10T11:55:33;93744.00;;;16.70
10598;BMP180;5346;48.766;8.674;2023-05-10T11:58:01;93772.00;;;16.10
10598;BMP180;5346;48.766;8.674;2023-05-10T12:00:30;93750.00;;;16.30
10598;BMP180;5346;48.766;8.674;2023-05-10T12:03:06;93741.00;;;15.90
10598;BMP180;5346;48.766;8.674;2023-05-10T12:05:33;93754.00;;;16.80
10598;BMP180;5346;48.766;8.674;2023-05-10T12:08:14;93778.00;;;15.00
10598;BMP180;5346;48.766;8.674;2023-05-10T12:10:42;93773.00;;;15.10
10598;BMP180;5346;48.766;8.674;2023-05-10T12:13:15;93781.00;;;13.80
10598;BMP180;5346;48.766;8.674;2023-05-10T12:15:43;93785.00;;;14.20
10598;BMP180;5346;48.766;8.674;2023-05-10T12:18:23;93778.00;;;13.80
10598;BMP180;5346;48.766;8.674;2023-05-10T12:21:04;93780.00;;;14.20
10598;BMP180;5346;48.766;8.674;2023-05-10T12:23:31;93780.00;;;15.00
10598;BMP180;5346;48.766;8.674;2023-05-10T12:26:06;93776.00;;;14.80
10598;BMP180;5346;48.766;8.674;2023-05-10T12:28:39;93745.00;;;15.50
10598;BMP180;5346;48.766;8.674;2023-05-10T12:31:07;93769.00;;;16.60
10598;BMP180;5346;48.766;8.674;2023-05-10T12:33:44;93772.00;;;15.50
10598;BMP180;5346;48.766;8.674;2023-05-10T12:36:23;93741.00;;;16.40
10598;BMP180;5346;48.766;8.674;2023-05-10T12:38:50;93767.00;;;15.30
10598;BMP180;5346;48.766;8.674;2023-05-10T12:41:26;93773.00;;;16.00
10598;BMP180;5346;48.766;8.674;2023-05-10T12:44:00;93773.00;;;16.00
10598;BMP180;5346;48.766;8.674;2023-05-10T12:46:33;93776.00;;;15.40
10598;BMP180;5346;48.766;8.674;2023-05-10T12:49:01;93780.00;;;15.50
10598;BMP180;5346;48.766;8.674;2023-05-10T12:51:35;93803.00;;;13.30
10598;BMP180;5346;48.766;8.674;2023-05-10T12:54:03;93796.00;;;13.70
10598;BMP180;5346;48.766;8.674;2023-05-10T12:56:36;93771.00;;;14.50
10598;BMP180;5346;48.766;8.674;2023-05-10T12:59:10;93765.00;;;14.80
10598;BMP180;5346;48.766;8.674;2023-05-10T13:01:37;93777.00;;;15.00
10598;BMP180;5346;48.766;8.674;2023-05-10T13:04:12;93791.00;;;15.80
10598;BMP180;5346;48.766;8.674;2023-05-10T13:06:39;93769.00;;;15.90
10598;BMP180;5346;48.766;8.674;2023-05-10T13:09:12;93770.00;;;15.20
10598;BMP180;5346;48.766;8.674;2023-05-10T13:11:46;93787.00;;;14.40
10598;BMP180;5346;48.766;8.674;2023-05-10T13:14:21;93776.00;;;15.30
10598;BMP180;5346;48.766;8.674;2023-05-10T13:16:55;93788.00;;;15.50
10598;BMP180;5346;48.766;8.674;2023-05-10T13:19:23;93776.00;;;14.80
10598;BMP180;5346;48.766;8.674;2023-05-10T13:22:04;93788.00;;;14.10
10598;BMP180;5346;48.766;8.674;2023-05-10T13:24:32;93792.00;;;15.00
10598;BMP180;5346;48.766;8.674;2023-05-10T13:27:05;93785.00;;;14.30
10598;BMP180;5346;48.766;8.674;2023-05-10T13:29:32;93779.00;;;15.70
10598;BMP180;5346;48.766;8.674;2023-05-10T13:32:10;93785.00;;;16.40
10598;BMP180;5346;48.766;8.674;2023-05-10T13:34:37;93775.00;;;16.60
10598;BMP180;5346;48.766;8.674;2023-05-10T13:37:10;93786.00;;;17.00
10598;BMP180;5346;48.766;8.674;2023-05-10T13:39:37;93789.00;;;16.10
10598;BMP180;5346;48.766;8.674;2023-05-10T13:42:05;93778.00;;;15.00
10598;BMP180;5346;48.766;8.674;2023-05-10T13:44:38;93789.00;;;14.90
10598;BMP180;5346;48.766;8.674;2023-05-10T13:47:12;93767.00;;;14.10
10598;BMP180;5346;48.766;8.674;2023-05-10T13:49:47;93800.00;;;14.20
10598;BMP180;5346;48.766;8.674;2023-05-10T13:52:14;93780.00;;;14.10
10598;BMP180;5346;48.766;8.674;2023-05-10T13:54:47;93808.00;;;14.50
10598;BMP180;5346;48.766;8.674;2023-05-10T13:57:22;93782.00;;;14.40
10598;BMP180;5346;48.766;8.674;2023-05-10T13:59:50;93799.00;;;14.60
10598;BMP180;5346;48.766;8.674;2023-05-10T14:02:17;93794.00;;;14.90
10598;BMP180;5346;48.766;8.674;2023-05-10T14:04:50;93775.00;;;15.10
10598;BMP180;5346;48.766;8.674;2023-05-10T14:07:18;93757.00;;;14.40
10598;BMP180;5346;48.766;8.674;2023-05-10T14:09:51;93783.00;;;14.90
10598;BMP180;5346;48.766;8.674;2023-05-10T14:12:24;93764.00;;;15.90
10598;BMP180;5346;48.766;8.674;2023-05-10T14:14:51;93765.00;;;15.60
10598;BMP180;5346;48.766;8.674;2023-05-10T14:17:25;93779.00;;;15.50
10598;BMP180;5346;48.766;8.674;2023-05-10T14:19:53;93754.00;;;15.30
10598;BMP180;5346;48.766;8.674;2023-05-10T14:22:41;93760.00;;;14.90
10598;BMP180;5346;48.766;8.674;2023-05-10T14:25:09;93774.00;;;14.70
10598;BMP180;5346;48.766;8.674;2023-05-10T14:27:43;93774.00;;;14.20
10598;BMP180;5346;48.766;8.674;2023-05-10T14:30:10;93764.00;;;14.50
10598;BMP180;5346;48.766;8.674;2023-05-10T14:32:45;93765.00;;;14.50
10598;BMP180;5346;48.766;8.674;2023-05-10T14:35:12;93749.00;;;14.70
10598;BMP180;5346;48.766;8.674;2023-05-10T14:37:47;93701.00;;;15.50
10598;BMP180;5346;48.766;8.674;2023-05-10T14:40:22;93756.00;;;15.10
10598;BMP180;5346;48.766;8.674;2023-05-10T14:42:50;93765.00;;;15.20
10598;BMP180;5346;48.766;8.674;2023-05-10T14:45:27;93745.00;;;15.20
10598;BMP180;5346;48.766;8.674;2023-05-10T14:47:54;93752.00;;;15.70
10598;BMP180;5346;48.766;8.674;2023-05-10T14:50:21;93714.00;;;15.60
10598;BMP180;5346;48.766;8.674;2023-05-10T14:53:02;93761.00;;;15.00
10598;BMP180;5346;48.766;8.674;2023-05-10T14:55:42;93761.00;;;15.40
10598;BMP180;5346;48.766;8.674;2023-05-10T14:58:10;93742.00;;;15.20
10598;BMP180;5346;48.766;8.674;2023-05-10T15:00:43;93754.00;;;15.30
10598;BMP180;5346;48.766;8.674;2023-05-10T15:03:18;93774.00;;;15.60
10598;BMP180;5346;48.766;8.674;2023-05-10T15:05:52;93749.00;;;15.20
10598;BMP180;5346;48.766;8.674;2023-05-10T15:08:26;93771.00;;;15.70
10598;BMP180;5346;48.766;8.674;2023-05-10T15:10:54;93750.00;;;16.20
10598;BMP180;5346;48.766;8.674;2023-05-10T15:13:23;93764.00;;;16.10
10598;BMP180;5346;48.766;8.674;2023-05-10T15:15:56;93743.00;;;15.10
10598;BMP180;5346;48.766;8.674;2023-05-10T15:18:23;93767.00;;;15.70
10598;BMP180;5346;48.766;8.674;2023-05-10T15:21:04;93772.00;;;15.50
10598;BMP180;5346;48.766;8.674;2023-05-10T15:23:32;93781.00;;;15.30
10598;BMP180;5346;48.766;8.674;2023-05-10T15:26:06;93778.00;;;14.30